sensor_id;sensor_type;location;lat;lon;timestamp;temperature;humidity
33476;DHT22;19814;48.224;11.422;2024-03-17T00:01:20;8.70;99.90
33476;DHT22;19814;48.224;11.422;2024-03-17T00:03:45;8.70;99.90
33476;DHT22;19814;48.224;11.422;2024-03-17T00:06:11;8.70;99.90
33476;DHT22;19814;48.224;11.422;2024-03-17T00:08:37;8.60;99.90
33476;DHT22;19814;48.224;11.422;2024-03-17T00:11:03;8.50;99.90
33476;DHT22;19814;48.224;11.422;2024-03-17T00:13:28;8.40;99.90
33476;DHT22;19814;48.224;11.422;2024-03-17T00:15:54;8.40;99.90
33476;DHT22;19814;48.224;11.422;2024-03-17T00:18:20;8.40;99.90
33476;DHT22;19814;48.224;11.422;2024-03-17T00:20:45;8.40;99.90
33476;DHT22;19814;48.224;11.422;2024-03-17T00:23:11;8.40;99.90
33476;DHT22;19814;48.224;11.422;2024-03-17T00:25:37;8.40;99.90
33476;DHT22;19814;48.224;11.422;2024-03-17T00:28:03;8.40;99.90
33476;DHT22;19814;48.224;11.422;2024-03-17T00:30:28;8.50;99.90
33476;DHT22;19814;48.224;11.422;2024-03-17T00:32:54;8.50;99.90
33476;DHT22;19814;48.224;11.422;2024-03-17T00:35:20;8.50;99.90
33476;DHT22;19814;48.224;11.422;2024-03-17T00:37:49;8.40;99.90
33476;DHT22;19814;48.224;11.422;2024-03-17T00:40:19;8.40;99.90
33476;DHT22;19814;48.224;11.422;2024-03-17T00:42:45;8.30;99.90
33476;DHT22;19814;48.224;11.422;2024-03-17T00:45:10;8.30;99.90
33476;DHT22;19814;48.224;11.422;2024-03-17T00:47:36;8.30;99.90
33476;DHT22;19814;48.224;11.422;2024-03-17T00:50:02;8.20;99.90
33476;DHT22;19814;48.224;11.422;2024-03-17T00:52:29;8.30;99.90
33476;DHT22;19814;48.224;11.422;2024-03-17T00:54:54;8.40;99.90
33476;DHT22;19814;48.224;11.422;2024-03-17T00:57:20;8.30;99.90
33476;DHT22;19814;48.224;11.422;2024-03-17T00:59:45;8.30;99.90
33476;DHT22;19814;48.224;11.422;2024-03-17T01:02:11;8.20;99.90
33476;DHT22;19814;48.224;11.422;2024-03-17T01:04:40;8.20;99.90
33476;DHT22;19814;48.224;11.422;2024-03-17T01:07:05;8.10;99.90
33476;DHT22;19814;48.224;11.422;2024-03-17T01:09:31;8.10;99.90
33476;DHT22;19814;48.224;11.422;2024-03-17T01:11:56;8.10;99.90
33476;DHT22;19814;48.224;11.422;2024-03-17T01:14:22;8.10;99.90
33476;DHT22;19814;48.224;11.422;2024-03-17T01:16:47;8.10;99.90
33476;DHT22;19814;48.224;11.422;2024-03-17T01:19:13;8.20;99.90
33476;DHT22;19814;48.224;11.422;2024-03-17T01:21:38;8.20;99.90
33476;DHT22;19814;48.224;11.422;2024-03-17T01:24:04;8.20;99.90
33476;DHT22;19814;48.224;11.422;2024-03-17T01:26:29;8.20;99.90
33476;DHT22;19814;48.224;11.422;2024-03-17T01:28:55;8.20;99.90
33476;DHT22;19814;48.224;11.422;2024-03-17T01:31:23;8.10;99.90
33476;DHT22;19814;48.224;11.422;2024-03-17T01:33:50;8.00;99.90
33476;DHT22;19814;48.224;11.422;2024-03-17T01:36:15;7.80;99.90
33476;DHT22;19814;48.224;11.422;2024-03-17T01:38:41;7.70;99.90
33476;DHT22;19814;48.224;11.422;2024-03-17T01:41:06;7.60;99.90
33476;DHT22;19814;48.224;11.422;2024-03-17T01:43:32;7.60;99.90
33476;DHT22;19814;48.224;11.422;2024-03-17T01:45:59;7.60;99.90
33476;DHT22;19814;48.224;11.422;2024-03-17T01:48:26;7.60;99.90
33476;DHT22;19814;48.224;11.422;2024-03-17T01:50:52;7.60;99.90
33476;DHT22;19814;48.224;11.422;2024-03-17T01:53:18;7.60;99.90
33476;DHT22;19814;48.224;11.422;2024-03-17T01:55:44;7.60;99.90
33476;DHT22;19814;48.224;11.422;2024-03-17T01:58:11;7.60;99.90
33476;DHT22;19814;48.224;11.422;2024-03-17T02:00:37;7.60;99.90
33476;DHT22;19814;48.224;11.422;2024-03-17T02:03:06;7.70;99.90
33476;DHT22;19814;48.224;11.422;2024-03-17T02:05:34;7.70;99.90
33476;DHT22;19814;48.224;11.422;2024-03-17T02:07:59;7.60;99.90
33476;DHT22;19814;48.224;11.422;2024-03-17T02:10:25;7.60;99.90
33476;DHT22;19814;48.224;11.422;2024-03-17T02:12:51;7.60;99.90
33476;DHT22;19814;48.224;11.422;2024-03-17T02:15:16;7.60;99.90
33476;DHT22;19814;48.224;11.422;2024-03-17T02:17:41;7.70;99.90
33476;DHT22;19814;48.224;11.422;2024-03-17T02:20:07;7.70;99.90
33476;DHT22;19814;48.224;11.422;2024-03-17T02:22:35;7.70;99.90
33476;DHT22;19814;48.224;11.422;2024-03-17T02:25:01;7.80;99.90
33476;DHT22;19814;48.224;11.422;2024-03-17T02:27:27;7.80;99.90
33476;DHT22;19814;48.224;11.422;2024-03-17T02:29:53;7.80;99.90
33476;DHT22;19814;48.224;11.422;2024-03-17T02:32:18;7.80;99.90
33476;DHT22;19814;48.224;11.422;2024-03-17T02:34:47;7.90;99.90
33476;DHT22;19814;48.224;11.422;2024-03-17T02:37:13;8.00;99.90
33476;DHT22;19814;48.224;11.422;2024-03-17T02:39:38;7.90;99.90
33476;DHT22;19814;48.224;11.422;2024-03-17T02:42:04;7.90;99.90
33476;DHT22;19814;48.224;11.422;2024-03-17T02:44:30;8.00;99.90
33476;DHT22;19814;48.224;11.422;2024-03-17T02:46:57;8.00;99.90
33476;DHT22;19814;48.224;11.422;2024-03-17T02:49:23;7.90;99.90
33476;DHT22;19814;48.224;11.422;2024-03-17T02:51:48;7.90;99.90
33476;DHT22;19814;48.224;11.422;2024-03-17T02:54:14;7.90;99.90
33476;DHT22;19814;48.224;11.422;2024-03-17T02:56:39;7.90;99.90
33476;DHT22;19814;48.224;11.422;2024-03-17T02:59:05;7.90;99.90
33476;DHT22;19814;48.224;11.422;2024-03-17T03:01:31;7.90;99.90
33476;DHT22;19814;48.224;11.422;2024-03-17T03:03:57;7.90;99.90
33476;DHT22;19814;48.224;11.422;2024-03-17T03:06:22;7.90;99.90
33476;DHT22;19814;48.224;11.422;2024-03-17T03:08:48;7.80;99.90
33476;DHT22;19814;48.224;11.422;2024-03-17T03:11:16;7.80;99.90
33476;DHT22;19814;48.224;11.422;2024-03-17T03:13:42;7.70;99.90
33476;DHT22;19814;48.224;11.422;2024-03-17T03:16:11;7.70;99.90
33476;DHT22;19814;48.224;11.422;2024-03-17T03:18:37;7.70;99.90
33476;DHT22;19814;48.224;11.422;2024-03-17T03:21:04;7.70;99.90
33476;DHT22;19814;48.224;11.422;2024-03-17T03:23:30;7.60;99.90
33476;DHT22;19814;48.224;11.422;2024-03-17T03:25:56;7.60;99.90
33476;DHT22;19814;48.224;11.422;2024-03-17T03:28:25;7.60;99.90
33476;DHT22;19814;48.224;11.422;2024-03-17T03:30:51;7.70;99.90
33476;DHT22;19814;48.224;11.422;2024-03-17T03:33:19;7.80;99.90
33476;DHT22;19814;48.224;11.422;2024-03-17T03:35:45;7.80;99.90
33476;DHT22;19814;48.224;11.422;2024-03-17T03:38:11;7.70;99.90
33476;DHT22;19814;48.224;11.422;2024-03-17T03:40:36;7.80;99.90
33476;DHT22;19814;48.224;11.422;2024-03-17T03:43:02;7.80;99.90
33476;DHT22;19814;48.224;11.422;2024-03-17T03:45:28;7.80;99.90
33476;DHT22;19814;48.224;11.422;2024-03-17T03:47:53;7.80;99.90
33476;DHT22;19814;48.224;11.422;2024-03-17T03:50:20;7.80;99.90
33476;DHT22;19814;48.224;11.422;2024-03-17T03:52:46;7.90;99.90
33476;DHT22;19814;48.224;11.422;2024-03-17T03:55:13;7.90;99.90
33476;DHT22;19814;48.224;11.422;2024-03-17T03:57:41;7.90;99.90
33476;DHT22;19814;48.224;11.422;2024-03-17T04:00:07;7.90;99.90
33476;DHT22;19814;48.224;11.422;2024-03-17T04:02:38;7.90;99.90
33476;DHT22;19814;48.224;11.422;2024-03-17T04:05:03;8.00;99.90
33476;DHT22;19814;48.224;11.422;2024-03-17T04:07:29;8.00;99.90
33476;DHT22;19814;48.224;11.422;2024-03-17T04:09:54;7.90;99.90
33476;DHT22;19814;48.224;11.422;2024-03-17T04:12:20;7.80;99.90
33476;DHT22;19814;48.224;11.422;2024-03-17T04:14:45;7.80;99.90
33476;DHT22;19814;48.224;11.422;2024-03-17T04:17:12;7.70;99.90
33476;DHT22;19814;48.224;11.422;2024-03-17T04:19:37;7.70;99.90
33476;DHT22;19814;48.224;11.422;2024-03-17T04:22:04;7.60;99.90
33476;DHT22;19814;48.224;11.422;2024-03-17T04:24:29;7.60;99.90
33476;DHT22;19814;48.224;11.422;2024-03-17T04:26:55;7.60;99.90
33476;DHT22;19814;48.224;11.422;2024-03-17T04:29:20;7.60;99.90
33476;DHT22;19814;48.224;11.422;2024-03-17T04:31:46;7.60;99.90
33476;DHT22;19814;48.224;11.422;2024-03-17T04:34:14;7.60;99.90
33476;DHT22;19814;48.224;11.422;2024-03-17T04:36:39;7.60;99.90
33476;DHT22;19814;48.224;11.422;2024-03-17T04:39:05;7.60;99.90
33476;DHT22;19814;48.224;11.422;2024-03-17T04:41:33;7.60;99.90
33476;DHT22;19814;48.224;11.422;2024-03-17T04:43:59;7.60;99.90
33476;DHT22;19814;48.224;11.422;2024-03-17T04:46:25;7.60;99.90
33476;DHT22;19814;48.224;11.422;2024-03-17T04:48:51;7.60;99.90
33476;DHT22;19814;48.224;11.422;2024-03-17T04:51:17;7.70;99.90
33476;DHT22;19814;48.224;11.422;2024-03-17T04:53:43;7.70;99.90
33476;DHT22;19814;48.224;11.422;2024-03-17T04:56:08;7.70;99.90
33476;DHT22;19814;48.224;11.422;2024-03-17T04:58:34;7.70;99.90
33476;DHT22;19814;48.224;11.422;2024-03-17T05:01:09;7.80;99.90
33476;DHT22;19814;48.224;11.422;2024-03-17T05:03:34;7.80;99.90
33476;DHT22;19814;48.224;11.422;2024-03-17T05:06:01;7.70;99.90
33476;DHT22;19814;48.224;11.422;2024-03-17T05:08:27;7.60;99.90
33476;DHT22;19814;48.224;11.422;2024-03-17T05:10:59;7.60;99.90
33476;DHT22;19814;48.224;11.422;2024-03-17T05:13:25;7.60;99.90
33476;DHT22;19814;48.224;11.422;2024-03-17T05:15:51;7.60;99.90
33476;DHT22;19814;48.224;11.422;2024-03-17T05:18:16;7.50;99.90
33476;DHT22;19814;48.224;11.422;2024-03-17T05:20:42;7.50;99.90
33476;DHT22;19814;48.224;11.422;2024-03-17T05:23:07;7.50;99.90
33476;DHT22;19814;48.224;11.422;2024-03-17T05:25:33;7.50;99.90
33476;DHT22;19814;48.224;11.422;2024-03-17T05:28:02;7.40;99.90
33476;DHT22;19814;48.224;11.422;2024-03-17T05:30:27;7.40;99.90
33476;DHT22;19814;48.224;11.422;2024-03-17T05:32:53;7.30;99.90
33476;DHT22;19814;48.224;11.422;2024-03-17T05:35:18;7.30;99.90
33476;DHT22;19814;48.224;11.422;2024-03-17T05:37:44;7.40;99.90
33476;DHT22;19814;48.224;11.422;2024-03-17T05:40:10;7.50;99.90
33476;DHT22;19814;48.224;11.422;2024-03-17T05:42:37;7.50;99.90
33476;DHT22;19814;48.224;11.422;2024-03-17T05:45:03;7.50;99.90
33476;DHT22;19814;48.224;11.422;2024-03-17T05:47:28;7.50;99.90
33476;DHT22;19814;48.224;11.422;2024-03-17T05:49:54;7.50;99.90
33476;DHT22;19814;48.224;11.422;2024-03-17T05:52:21;7.40;99.90
33476;DHT22;19814;48.224;11.422;2024-03-17T05:54:47;7.40;99.90
33476;DHT22;19814;48.224;11.422;2024-03-17T05:57:12;7.40;99.90
33476;DHT22;19814;48.224;11.422;2024-03-17T05:59:39;7.40;99.90
33476;DHT22;19814;48.224;11.422;2024-03-17T06:02:04;7.40;99.90
33476;DHT22;19814;48.224;11.422;2024-03-17T06:04:30;7.50;99.90
33476;DHT22;19814;48.224;11.422;2024-03-17T06:06:55;7.60;99.90
33476;DHT22;19814;48.224;11.422;2024-03-17T06:09:21;7.70;99.90
33476;DHT22;19814;48.224;11.422;2024-03-17T06:11:48;7.80;99.90
33476;DHT22;19814;48.224;11.422;2024-03-17T06:14:13;7.80;99.90
33476;DHT22;19814;48.224;11.422;2024-03-17T06:16:39;7.80;99.90
33476;DHT22;19814;48.224;11.422;2024-03-17T06:19:04;7.90;99.90
33476;DHT22;19814;48.224;11.422;2024-03-17T06:21:30;8.00;99.90
33476;DHT22;19814;48.224;11.422;2024-03-17T06:23:56;7.90;99.90
33476;DHT22;19814;48.224;11.422;2024-03-17T06:26:22;8.10;99.90
33476;DHT22;19814;48.224;11.422;2024-03-17T06:28:48;8.10;99.90
33476;DHT22;19814;48.224;11.422;2024-03-17T06:31:13;8.10;99.90
33476;DHT22;19814;48.224;11.422;2024-03-17T06:33:39;8.10;99.90
33476;DHT22;19814;48.224;11.422;2024-03-17T06:36:04;8.20;99.90
33476;DHT22;19814;48.224;11.422;2024-03-17T06:38:34;8.20;99.90
33476;DHT22;19814;48.224;11.422;2024-03-17T06:40:59;8.30;99.90
33476;DHT22;19814;48.224;11.422;2024-03-17T06:43:25;8.30;99.90
33476;DHT22;19814;48.224;11.422;2024-03-17T06:45:54;8.40;99.90
33476;DHT22;19814;48.224;11.422;2024-03-17T06:48:19;8.40;99.90
33476;DHT22;19814;48.224;11.422;2024-03-17T06:50:45;8.50;99.90
33476;DHT22;19814;48.224;11.422;2024-03-17T06:53:11;8.70;99.90
33476;DHT22;19814;48.224;11.422;2024-03-17T06:55:36;8.80;99.90
33476;DHT22;19814;48.224;11.422;2024-03-17T06:58:02;8.90;99.90
33476;DHT22;19814;48.224;11.422;2024-03-17T07:00:28;8.90;99.90
33476;DHT22;19814;48.224;11.422;2024-03-17T07:02:54;9.00;99.90
33476;DHT22;19814;48.224;11.422;2024-03-17T07:05:19;9.10;99.90
33476;DHT22;19814;48.224;11.422;2024-03-17T07:07:45;9.20;99.90
33476;DHT22;19814;48.224;11.422;2024-03-17T07:10:11;9.20;99.90
33476;DHT22;19814;48.224;11.422;2024-03-17T07:12:37;9.20;99.90
33476;DHT22;19814;48.224;11.422;2024-03-17T07:15:02;9.40;99.90
33476;DHT22;19814;48.224;11.422;2024-03-17T07:17:28;9.70;99.90
33476;DHT22;19814;48.224;11.422;2024-03-17T07:19:53;9.70;99.90
33476;DHT22;19814;48.224;11.422;2024-03-17T07:22:19;9.80;99.90
33476;DHT22;19814;48.224;11.422;2024-03-17T07:24:44;9.90;99.90
33476;DHT22;19814;48.224;11.422;2024-03-17T07:27:10;10.20;99.90
33476;DHT22;19814;48.224;11.422;2024-03-17T07:29:39;10.40;99.90
33476;DHT22;19814;48.224;11.422;2024-03-17T07:32:04;10.80;99.90
33476;DHT22;19814;48.224;11.422;2024-03-17T07:34:30;11.20;99.90
33476;DHT22;19814;48.224;11.422;2024-03-17T07:36:56;11.50;99.90
33476;DHT22;19814;48.224;11.422;2024-03-17T07:39:21;11.70;99.90
33476;DHT22;19814;48.224;11.422;2024-03-17T07:41:47;11.80;99.90
33476;DHT22;19814;48.224;11.422;2024-03-17T07:44:13;11.60;99.90
33476;DHT22;19814;48.224;11.422;2024-03-17T07:46:38;11.40;99.90
33476;DHT22;19814;48.224;11.422;2024-03-17T07:49:03;11.40;99.90
33476;DHT22;19814;48.224;11.422;2024-03-17T07:51:29;11.30;99.90
33476;DHT22;19814;48.224;11.422;2024-03-17T07:53:54;11.40;99.90
33476;DHT22;19814;48.224;11.422;2024-03-17T07:56:20;11.50;99.90
33476;DHT22;19814;48.224;11.422;2024-03-17T07:58:46;11.60;99.90
33476;DHT22;19814;48.224;11.422;2024-03-17T08:01:14;11.40;99.90
33476;DHT22;19814;48.224;11.422;2024-03-17T08:03:41;11.60;99.90
33476;DHT22;19814;48.224;11.422;2024-03-17T08:06:09;11.50;99.90
33476;DHT22;19814;48.224;11.422;2024-03-17T08:08:36;11.20;99.90
33476;DHT22;19814;48.224;11.422;2024-03-17T08:11:02;11.20;99.90
33476;DHT22;19814;48.224;11.422;2024-03-17T08:13:30;11.30;99.90
33476;DHT22;19814;48.224;11.422;2024-03-17T08:16:00;11.50;99.90
33476;DHT22;19814;48.224;11.422;2024-03-17T08:18:26;11.50;99.90
33476;DHT22;19814;48.224;11.422;2024-03-17T08:20:52;11.80;99.90
33476;DHT22;19814;48.224;11.422;2024-03-17T08:23:19;12.00;99.90
33476;DHT22;19814;48.224;11.422;2024-03-17T08:25:51;11.90;99.90
33476;DHT22;19814;48.224;11.422;2024-03-17T08:28:17;11.90;99.90
33476;DHT22;19814;48.224;11.422;2024-03-17T08:30:42;12.00;99.90
33476;DHT22;19814;48.224;11.422;2024-03-17T08:33:09;11.90;99.90
33476;DHT22;19814;48.224;11.422;2024-03-17T08:35:35;12.00;99.90
33476;DHT22;19814;48.224;11.422;2024-03-17T08:38:02;12.50;99.90
33476;DHT22;19814;48.224;11.422;2024-03-17T08:40:28;12.70;99.90
33476;DHT22;19814;48.224;11.422;2024-03-17T08:42:53;13.20;99.90
33476;DHT22;19814;48.224;11.422;2024-03-17T08:45:18;13.50;99.50
33476;DHT22;19814;48.224;11.422;2024-03-17T08:47:44;13.80;99.90
33476;DHT22;19814;48.224;11.422;2024-03-17T08:50:10;14.30;99.10
33476;DHT22;19814;48.224;11.422;2024-03-17T08:52:37;15.10;97.80
33476;DHT22;19814;48.224;11.422;2024-03-17T08:55:03;15.70;96.00
33476;DHT22;19814;48.224;11.422;2024-03-17T08:57:29;16.20;94.00
33476;DHT22;19814;48.224;11.422;2024-03-17T08:59:54;15.70;94.20
33476;DHT22;19814;48.224;11.422;2024-03-17T09:02:20;15.40;95.70
33476;DHT22;19814;48.224;11.422;2024-03-17T09:04:48;15.20;95.30
33476;DHT22;19814;48.224;11.422;2024-03-17T09:07:14;15.10;97.20
33476;DHT22;19814;48.224;11.422;2024-03-17T09:09:41;15.30;95.40
33476;DHT22;19814;48.224;11.422;2024-03-17T09:12:06;15.80;94.70
33476;DHT22;19814;48.224;11.422;2024-03-17T09:14:32;17.10;93.40
33476;DHT22;19814;48.224;11.422;2024-03-17T09:16:58;17.80;92.10
33476;DHT22;19814;48.224;11.422;2024-03-17T09:19:23;19.20;90.90
33476;DHT22;19814;48.224;11.422;2024-03-17T09:21:49;19.70;90.80
33476;DHT22;19814;48.224;11.422;2024-03-17T09:24:14;20.50;83.40
33476;DHT22;19814;48.224;11.422;2024-03-17T09:26:40;20.00;84.00
33476;DHT22;19814;48.224;11.422;2024-03-17T09:29:06;21.30;79.90
33476;DHT22;19814;48.224;11.422;2024-03-17T09:31:31;21.60;84.20
33476;DHT22;19814;48.224;11.422;2024-03-17T09:33:59;22.30;74.90
33476;DHT22;19814;48.224;11.422;2024-03-17T09:36:25;22.60;75.40
33476;DHT22;19814;48.224;11.422;2024-03-17T09:38:50;22.80;72.90
33476;DHT22;19814;48.224;11.422;2024-03-17T09:41:22;22.40;69.10
33476;DHT22;19814;48.224;11.422;2024-03-17T09:43:50;21.70;67.70
33476;DHT22;19814;48.224;11.422;2024-03-17T09:46:16;22.20;66.10
33476;DHT22;19814;48.224;11.422;2024-03-17T09:48:42;21.70;69.60
33476;DHT22;19814;48.224;11.422;2024-03-17T09:51:08;22.00;70.90
33476;DHT22;19814;48.224;11.422;2024-03-17T09:53:41;22.80;67.70
33476;DHT22;19814;48.224;11.422;2024-03-17T09:56:11;23.00;68.90
33476;DHT22;19814;48.224;11.422;2024-03-17T09:58:37;23.80;64.70
33476;DHT22;19814;48.224;11.422;2024-03-17T10:01:02;23.40;66.50
33476;DHT22;19814;48.224;11.422;2024-03-17T10:03:44;24.00;67.00
33476;DHT22;19814;48.224;11.422;2024-03-17T10:06:11;24.40;62.60
33476;DHT22;19814;48.224;11.422;2024-03-17T10:11:07;23.60;65.90
33476;DHT22;19814;48.224;11.422;2024-03-17T10:13:33;23.90;67.90
33476;DHT22;19814;48.224;11.422;2024-03-17T10:15:59;24.10;64.50
33476;DHT22;19814;48.224;11.422;2024-03-17T10:18:24;23.60;64.50
33476;DHT22;19814;48.224;11.422;2024-03-17T10:20:50;24.80;63.10
33476;DHT22;19814;48.224;11.422;2024-03-17T10:23:20;25.60;57.80
33476;DHT22;19814;48.224;11.422;2024-03-17T10:25:45;24.60;62.10
33476;DHT22;19814;48.224;11.422;2024-03-17T10:28:11;23.90;63.00
33476;DHT22;19814;48.224;11.422;2024-03-17T10:30:37;24.50;62.30
33476;DHT22;19814;48.224;11.422;2024-03-17T10:33:06;23.50;61.10
33476;DHT22;19814;48.224;11.422;2024-03-17T10:35:36;22.50;59.40
33476;DHT22;19814;48.224;11.422;2024-03-17T10:38:05;21.80;63.30
33476;DHT22;19814;48.224;11.422;2024-03-17T10:40:32;20.70;65.20
33476;DHT22;19814;48.224;11.422;2024-03-17T10:43:04;20.50;70.20
33476;DHT22;19814;48.224;11.422;2024-03-17T10:45:30;21.50;67.10
33476;DHT22;19814;48.224;11.422;2024-03-17T10:48:00;23.60;62.50
33476;DHT22;19814;48.224;11.422;2024-03-17T10:50:27;24.50;57.10
33476;DHT22;19814;48.224;11.422;2024-03-17T10:52:54;24.70;56.00
33476;DHT22;19814;48.224;11.422;2024-03-17T10:55:24;23.50;57.60
33476;DHT22;19814;48.224;11.422;2024-03-17T10:57:50;23.20;59.60
33476;DHT22;19814;48.224;11.422;2024-03-17T11:00:20;23.80;57.70
33476;DHT22;19814;48.224;11.422;2024-03-17T11:02:48;24.10;56.90
33476;DHT22;19814;48.224;11.422;2024-03-17T11:07:45;24.10;56.90
33476;DHT22;19814;48.224;11.422;2024-03-17T11:10:32;24.30;57.10
33476;DHT22;19814;48.224;11.422;2024-03-17T11:12:58;24.40;55.60
33476;DHT22;19814;48.224;11.422;2024-03-17T11:20:37;23.40;56.50
33476;DHT22;19814;48.224;11.422;2024-03-17T11:23:03;23.60;55.20
33476;DHT22;19814;48.224;11.422;2024-03-17T11:28:02;24.80;55.60
33476;DHT22;19814;48.224;11.422;2024-03-17T11:38:55;24.80;53.20
33476;DHT22;19814;48.224;11.422;2024-03-17T11:41:30;23.90;55.10
33476;DHT22;19814;48.224;11.422;2024-03-17T11:44:12;23.10;55.30
33476;DHT22;19814;48.224;11.422;2024-03-17T11:46:38;22.20;57.40
33476;DHT22;19814;48.224;11.422;2024-03-17T11:49:04;21.50;59.90
33476;DHT22;19814;48.224;11.422;2024-03-17T11:51:29;20.50;60.40
33476;DHT22;19814;48.224;11.422;2024-03-17T11:53:58;19.80;61.60
33476;DHT22;19814;48.224;11.422;2024-03-17T11:56:24;19.80;63.40
33476;DHT22;19814;48.224;11.422;2024-03-17T11:59:03;20.50;63.40
33476;DHT22;19814;48.224;11.422;2024-03-17T12:01:29;21.70;62.10
33476;DHT22;19814;48.224;11.422;2024-03-17T12:03:55;22.70;58.20
33476;DHT22;19814;48.224;11.422;2024-03-17T12:06:22;22.90;56.70
33476;DHT22;19814;48.224;11.422;2024-03-17T12:08:48;21.70;59.80
33476;DHT22;19814;48.224;11.422;2024-03-17T12:11:16;20.70;63.00
33476;DHT22;19814;48.224;11.422;2024-03-17T12:13:43;20.80;61.60
33476;DHT22;19814;48.224;11.422;2024-03-17T12:16:10;20.50;63.70
33476;DHT22;19814;48.224;11.422;2024-03-17T12:18:36;20.30;64.60
33476;DHT22;19814;48.224;11.422;2024-03-17T12:21:11;20.10;65.70
33476;DHT22;19814;48.224;11.422;2024-03-17T12:23:39;20.50;64.10
33476;DHT22;19814;48.224;11.422;2024-03-17T12:26:04;20.60;61.20
33476;DHT22;19814;48.224;11.422;2024-03-17T12:28:30;20.30;64.20
33476;DHT22;19814;48.224;11.422;2024-03-17T12:30:55;20.20;62.40
33476;DHT22;19814;48.224;11.422;2024-03-17T12:33:24;20.10;64.30
33476;DHT22;19814;48.224;11.422;2024-03-17T12:35:49;19.90;63.20
33476;DHT22;19814;48.224;11.422;2024-03-17T12:38:21;19.40;65.80
33476;DHT22;19814;48.224;11.422;2024-03-17T12:40:47;19.10;65.60
33476;DHT22;19814;48.224;11.422;2024-03-17T12:43:12;19.00;69.40
33476;DHT22;19814;48.224;11.422;2024-03-17T12:45:38;19.00;67.10
33476;DHT22;19814;48.224;11.422;2024-03-17T12:48:03;18.70;67.50
33476;DHT22;19814;48.224;11.422;2024-03-17T12:50:29;18.60;69.40
33476;DHT22;19814;48.224;11.422;2024-03-17T12:52:55;18.80;70.80
33476;DHT22;19814;48.224;11.422;2024-03-17T12:55:20;19.00;69.70
33476;DHT22;19814;48.224;11.422;2024-03-17T13:01:02;19.10;70.80
33476;DHT22;19814;48.224;11.422;2024-03-17T13:03:32;19.30;68.90
33476;DHT22;19814;48.224;11.422;2024-03-17T13:06:02;18.80;69.60
33476;DHT22;19814;48.224;11.422;2024-03-17T13:08:29;18.50;68.80
33476;DHT22;19814;48.224;11.422;2024-03-17T13:10:56;18.30;69.80
33476;DHT22;19814;48.224;11.422;2024-03-17T13:13:22;18.10;70.90
33476;DHT22;19814;48.224;11.422;2024-03-17T13:15:47;17.80;71.40
33476;DHT22;19814;48.224;11.422;2024-03-17T13:18:16;17.90;73.00
33476;DHT22;19814;48.224;11.422;2024-03-17T13:20:43;17.80;70.10
33476;DHT22;19814;48.224;11.422;2024-03-17T13:23:09;17.70;72.90
33476;DHT22;19814;48.224;11.422;2024-03-17T13:25:34;17.50;73.90
33476;DHT22;19814;48.224;11.422;2024-03-17T13:28:04;17.30;73.30
33476;DHT22;19814;48.224;11.422;2024-03-17T13:30:32;17.20;74.10
33476;DHT22;19814;48.224;11.422;2024-03-17T13:32:59;17.40;74.50
33476;DHT22;19814;48.224;11.422;2024-03-17T13:35:25;17.40;73.00
33476;DHT22;19814;48.224;11.422;2024-03-17T13:37:51;17.30;72.50
33476;DHT22;19814;48.224;11.422;2024-03-17T13:40:17;17.30;72.90
33476;DHT22;19814;48.224;11.422;2024-03-17T13:42:47;17.30;72.30
33476;DHT22;19814;48.224;11.422;2024-03-17T13:45:15;17.20;75.10
33476;DHT22;19814;48.224;11.422;2024-03-17T13:47:40;17.20;74.60
33476;DHT22;19814;48.224;11.422;2024-03-17T13:50:07;17.10;73.80
33476;DHT22;19814;48.224;11.422;2024-03-17T13:52:36;17.20;74.30
33476;DHT22;19814;48.224;11.422;2024-03-17T13:55:02;17.10;73.30
33476;DHT22;19814;48.224;11.422;2024-03-17T13:57:29;17.10;75.00
33476;DHT22;19814;48.224;11.422;2024-03-17T13:59:54;17.10;73.60
33476;DHT22;19814;48.224;11.422;2024-03-17T14:02:22;17.10;77.20
33476;DHT22;19814;48.224;11.422;2024-03-17T14:04:48;17.20;74.50
33476;DHT22;19814;48.224;11.422;2024-03-17T14:07:13;17.10;76.00
33476;DHT22;19814;48.224;11.422;2024-03-17T14:09:41;17.20;73.30
33476;DHT22;19814;48.224;11.422;2024-03-17T14:12:07;17.20;75.40
33476;DHT22;19814;48.224;11.422;2024-03-17T14:14:32;17.30;75.80
33476;DHT22;19814;48.224;11.422;2024-03-17T14:16:58;17.20;76.80
33476;DHT22;19814;48.224;11.422;2024-03-17T14:19:24;17.10;76.30
33476;DHT22;19814;48.224;11.422;2024-03-17T14:21:49;16.90;75.90
33476;DHT22;19814;48.224;11.422;2024-03-17T14:24:16;16.60;76.40
33476;DHT22;19814;48.224;11.422;2024-03-17T14:26:41;16.50;76.30
33476;DHT22;19814;48.224;11.422;2024-03-17T14:29:07;16.50;77.60
33476;DHT22;19814;48.224;11.422;2024-03-17T14:31:32;16.40;76.50
33476;DHT22;19814;48.224;11.422;2024-03-17T14:34:05;16.40;77.50
33476;DHT22;19814;48.224;11.422;2024-03-17T14:36:31;16.30;78.70
33476;DHT22;19814;48.224;11.422;2024-03-17T14:38:58;16.20;80.70
33476;DHT22;19814;48.224;11.422;2024-03-17T14:41:24;16.10;77.60
33476;DHT22;19814;48.224;11.422;2024-03-17T14:43:50;16.00;78.60
33476;DHT22;19814;48.224;11.422;2024-03-17T14:46:16;15.80;80.00
33476;DHT22;19814;48.224;11.422;2024-03-17T14:48:42;15.80;80.20
33476;DHT22;19814;48.224;11.422;2024-03-17T14:51:08;15.70;79.50
33476;DHT22;19814;48.224;11.422;2024-03-17T14:53:34;15.80;81.10
33476;DHT22;19814;48.224;11.422;2024-03-17T14:56:02;15.70;81.50
33476;DHT22;19814;48.224;11.422;2024-03-17T14:58:27;15.70;82.20
33476;DHT22;19814;48.224;11.422;2024-03-17T15:00:53;15.80;82.30
33476;DHT22;19814;48.224;11.422;2024-03-17T15:03:18;15.70;81.00
33476;DHT22;19814;48.224;11.422;2024-03-17T15:05:44;15.70;82.60
33476;DHT22;19814;48.224;11.422;2024-03-17T15:08:09;15.60;82.00
33476;DHT22;19814;48.224;11.422;2024-03-17T15:10:35;15.60;83.40
33476;DHT22;19814;48.224;11.422;2024-03-17T15:13:01;15.60;83.30
33476;DHT22;19814;48.224;11.422;2024-03-17T15:15:27;15.50;83.50
33476;DHT22;19814;48.224;11.422;2024-03-17T15:17:53;15.40;83.00
33476;DHT22;19814;48.224;11.422;2024-03-17T15:20:19;15.30;82.80
33476;DHT22;19814;48.224;11.422;2024-03-17T15:22:49;15.30;83.70
33476;DHT22;19814;48.224;11.422;2024-03-17T15:25:15;15.20;83.80
33476;DHT22;19814;48.224;11.422;2024-03-17T15:27:41;15.10;83.70
33476;DHT22;19814;48.224;11.422;2024-03-17T15:30:08;15.10;83.30
33476;DHT22;19814;48.224;11.422;2024-03-17T15:32:36;15.00;85.30
33476;DHT22;19814;48.224;11.422;2024-03-17T15:35:02;15.10;85.30
33476;DHT22;19814;48.224;11.422;2024-03-17T15:37:28;15.00;85.90
33476;DHT22;19814;48.224;11.422;2024-03-17T15:39:53;15.10;87.90
33476;DHT22;19814;48.224;11.422;2024-03-17T15:42:21;15.10;86.60